sensor_id;sensor_type;location;lat;lon;timestamp;pressure;altitude;pressure_sealevel;temperature;humidity
78671;BME280;68277;52.724;6.516;2023-05-19T00:01:06;102863.34;;;8.26;74.96
78671;BME280;68277;52.724;6.516;2023-05-19T00:03:32;102851.72;;;8.18;75.98
78671;BME280;68277;52.724;6.516;2023-05-19T00:06:00;102841.00;;;8.10;75.74
78671;BME280;68277;52.724;6.516;2023-05-19T00:08:29;102862.31;;;8.19;77.52
78671;BME280;68277;52.724;6.516;2023-05-19T00:10:56;102843.56;;;8.06;75.75
78671;BME280;68277;52.724;6.516;2023-05-19T00:13:24;102834.81;;;8.08;75.61
78671;BME280;68277;52.724;6.516;2023-05-19T00:15:50;102831.25;;;8.06;75.75
78671;BME280;68277;52.724;6.516;2023-05-19T00:18:15;102858.69;;;8.14;76.23
78671;BME280;68277;52.724;6.516;2023-05-19T00:20:42;102821.38;;;7.96;76.29
78671;BME280;68277;52.724;6.516;2023-05-19T00:23:07;102835.63;;;8.06;76.13
78671;BME280;68277;52.724;6.516;2023-05-19T00:25:33;102822.34;;;8.00;77.08
78671;BME280;68277;52.724;6.516;2023-05-19T00:27:59;102825.81;;;7.99;77.03
78671;BME280;68277;52.724;6.516;2023-05-19T00:30:24;102815.25;;;7.96;77.40
78671;BME280;68277;52.724;6.516;2023-05-19T00:32:50;102831.09;;;7.99;78.36
78671;BME280;68277;52.724;6.516;2023-05-19T00:35:16;102826.72;;;7.98;78.64
78671;BME280;68277;52.724;6.516;2023-05-19T00:37:41;102844.38;;;8.03;78.86
78671;BME280;68277;52.724;6.516;2023-05-19T00:40:09;102783.06;;;7.70;78.75
78671;BME280;68277;52.724;6.516;2023-05-19T00:42:38;102828.28;;;7.90;78.02
78671;BME280;68277;52.724;6.516;2023-05-19T00:45:04;102834.53;;;7.93;77.95
78671;BME280;68277;52.724;6.516;2023-05-19T00:47:30;102829.19;;;7.90;77.99
78671;BME280;68277;52.724;6.516;2023-05-19T00:49:55;102815.91;;;7.84;78.21
78671;BME280;68277;52.724;6.516;2023-05-19T00:52:21;102845.09;;;7.96;77.65
78671;BME280;68277;52.724;6.516;2023-05-19T00:54:47;102816.66;;;7.80;78.42
78671;BME280;68277;52.724;6.516;2023-05-19T00:57:13;102829.13;;;7.87;80.52
78671;BME280;68277;52.724;6.516;2023-05-19T00:59:39;102822.94;;;7.85;79.42
78671;BME280;68277;52.724;6.516;2023-05-19T01:02:05;102808.66;;;7.74;79.27
78671;BME280;68277;52.724;6.516;2023-05-19T01:04:32;102831.66;;;7.83;78.13
78671;BME280;68277;52.724;6.516;2023-05-19T01:06:59;102832.53;;;7.82;78.71
78671;BME280;68277;52.724;6.516;2023-05-19T01:09:25;102825.44;;;7.79;78.84
78671;BME280;68277;52.724;6.516;2023-05-19T01:11:50;102800.50;;;7.64;78.78
78671;BME280;68277;52.724;6.516;2023-05-19T01:14:17;102793.47;;;7.63;79.09
78671;BME280;68277;52.724;6.516;2023-05-19T01:16:51;102821.03;;;7.78;79.34
78671;BME280;68277;52.724;6.516;2023-05-19T01:30:47;102833.19;;;7.72;80.63
78671;BME280;68277;52.724;6.516;2023-05-19T01:33:17;102828.66;;;7.66;80.04
78671;BME280;68277;52.724;6.516;2023-05-19T01:35:46;102786.78;;;7.38;80.06
78671;BME280;68277;52.724;6.516;2023-05-19T01:38:15;102806.47;;;7.55;79.47
78671;BME280;68277;52.724;6.516;2023-05-19T01:40:42;102826.84;;;7.62;80.02
78671;BME280;68277;52.724;6.516;2023-05-19T01:43:10;102799.31;;;7.49;79.50
78671;BME280;68277;52.724;6.516;2023-05-19T01:45:37;102818.09;;;7.65;79.46
78671;BME280;68277;52.724;6.516;2023-05-19T01:48:04;102820.69;;;7.63;84.25
78671;BME280;68277;52.724;6.516;2023-05-19T01:50:31;102822.41;;;7.61;79.18
78671;BME280;68277;52.724;6.516;2023-05-19T01:52:56;102825.94;;;7.62;78.97
78671;BME280;68277;52.724;6.516;2023-05-19T01:55:22;102805.50;;;7.51;79.49
78671;BME280;68277;52.724;6.516;2023-05-19T02:03:36;102789.41;;;7.38;79.64
78671;BME280;68277;52.724;6.516;2023-05-19T02:09:02;102802.94;;;7.53;80.70
78671;BME280;68277;52.724;6.516;2023-05-19T02:11:35;102751.41;;;7.25;80.24
78671;BME280;68277;52.724;6.516;2023-05-19T02:14:20;102806.50;;;7.56;81.54
78671;BME280;68277;52.724;6.516;2023-05-19T02:16:49;102810.03;;;7.57;81.96
78671;BME280;68277;52.724;6.516;2023-05-19T02:19:27;102796.66;;;7.48;80.99
78671;BME280;68277;52.724;6.516;2023-05-19T02:21:54;102770.88;;;7.33;81.46
78671;BME280;68277;52.724;6.516;2023-05-19T02:24:20;102798.44;;;7.49;81.78
78671;BME280;68277;52.724;6.516;2023-05-19T02:26:50;102786.94;;;7.44;83.70
78671;BME280;68277;52.724;6.516;2023-05-19T02:29:18;102805.50;;;7.51;82.08
78671;BME280;68277;52.724;6.516;2023-05-19T02:31:43;102788.63;;;7.42;81.80
78671;BME280;68277;52.724;6.516;2023-05-19T02:34:09;102792.31;;;7.50;81.55
78671;BME280;68277;52.724;6.516;2023-05-19T02:36:37;102779.75;;;7.37;81.72
78671;BME280;68277;52.724;6.516;2023-05-19T02:39:05;102774.50;;;7.38;81.70
78671;BME280;68277;52.724;6.516;2023-05-19T02:41:31;102792.22;;;7.44;81.14
78671;BME280;68277;52.724;6.516;2023-05-19T02:43:57;102766.25;;;7.23;82.29
78671;BME280;68277;52.724;6.516;2023-05-19T02:46:22;102773.44;;;7.30;82.40
78671;BME280;68277;52.724;6.516;2023-05-19T02:48:49;102784.25;;;7.42;82.90
78671;BME280;68277;52.724;6.516;2023-05-19T02:51:14;102769.06;;;7.31;81.65
78671;BME280;68277;52.724;6.516;2023-05-19T02:53:40;102778.88;;;7.36;81.79
78671;BME280;68277;52.724;6.516;2023-05-19T02:56:05;102744.06;;;7.11;82.61
78671;BME280;68277;52.724;6.516;2023-05-19T02:58:31;102747.63;;;7.14;82.05
78671;BME280;68277;52.724;6.516;2023-05-19T03:00:56;102757.53;;;7.24;82.01
78671;BME280;68277;52.724;6.516;2023-05-19T03:03:22;102773.53;;;7.35;82.51
78671;BME280;68277;52.724;6.516;2023-05-19T03:05:48;102730.91;;;7.12;82.49
78671;BME280;68277;52.724;6.516;2023-05-19T03:08:13;102745.81;;;7.12;83.31
78671;BME280;68277;52.724;6.516;2023-05-19T03:10:39;102782.31;;;7.34;85.50
78671;BME280;68277;52.724;6.516;2023-05-19T03:13:04;102764.44;;;7.19;82.66
78671;BME280;68277;52.724;6.516;2023-05-19T03:15:30;102743.16;;;7.09;81.50
78671;BME280;68277;52.724;6.516;2023-05-19T03:17:57;102745.78;;;7.09;83.17
78671;BME280;68277;52.724;6.516;2023-05-19T03:20:23;102789.19;;;7.27;83.24
78671;BME280;68277;52.724;6.516;2023-05-19T03:22:49;102726.16;;;6.95;85.40
78671;BME280;68277;52.724;6.516;2023-05-19T03:25:15;102763.50;;;7.16;82.87
78671;BME280;68277;52.724;6.516;2023-05-19T03:27:41;102765.13;;;7.11;82.01
78671;BME280;68277;52.724;6.516;2023-05-19T03:30:10;102768.69;;;7.13;81.90
78671;BME280;68277;52.724;6.516;2023-05-19T03:32:47;102771.38;;;7.16;82.02
78671;BME280;68277;52.724;6.516;2023-05-19T03:35:13;102781.16;;;7.21;81.31
78671;BME280;68277;52.724;6.516;2023-05-19T03:37:38;102782.84;;;7.18;82.45
78671;BME280;68277;52.724;6.516;2023-05-19T03:40:04;102749.06;;;6.99;82.03
78671;BME280;68277;52.724;6.516;2023-05-19T03:42:33;102761.56;;;7.09;83.25
78671;BME280;68277;52.724;6.516;2023-05-19T03:44:59;102753.53;;;7.03;84.31
78671;BME280;68277;52.724;6.516;2023-05-19T03:47:25;102772.25;;;7.16;82.38
78671;BME280;68277;52.724;6.516;2023-05-19T03:50:13;102766.03;;;7.11;83.93
78671;BME280;68277;52.724;6.516;2023-05-19T03:53:02;102786.47;;;7.23;82.14
78671;BME280;68277;52.724;6.516;2023-05-19T03:55:31;102780.16;;;7.16;81.29
78671;BME280;68277;52.724;6.516;2023-05-19T03:57:56;102770.44;;;7.14;81.25
78671;BME280;68277;52.724;6.516;2023-05-19T04:00:22;102784.78;;;7.28;82.91
78671;BME280;68277;52.724;6.516;2023-05-19T04:02:49;102777.78;;;7.27;81.68
78671;BME280;68277;52.724;6.516;2023-05-19T04:05:15;102759.06;;;7.15;80.81
78671;BME280;68277;52.724;6.516;2023-05-19T04:07:40;102768.06;;;7.24;80.98
78671;BME280;68277;52.724;6.516;2023-05-19T04:10:07;102785.03;;;7.37;82.01
78671;BME280;68277;52.724;6.516;2023-05-19T04:12:33;102776.94;;;7.29;80.95
78671;BME280;68277;52.724;6.516;2023-05-19T04:14:58;102784.22;;;7.41;80.45
78671;BME280;68277;52.724;6.516;2023-05-19T04:17:25;102733.44;;;7.06;81.17
78671;BME280;68277;52.724;6.516;2023-05-19T04:19:54;102769.84;;;7.25;81.12
78671;BME280;68277;52.724;6.516;2023-05-19T04:22:20;102756.63;;;7.24;82.08
78671;BME280;68277;52.724;6.516;2023-05-19T04:24:46;102783.22;;;7.34;82.25
78671;BME280;68277;52.724;6.516;2023-05-19T04:27:13;102803.75;;;7.50;80.75
78671;BME280;68277;52.724;6.516;2023-05-19T04:29:40;102775.34;;;7.37;81.28
78671;BME280;68277;52.724;6.516;2023-05-19T04:32:06;102804.75;;;7.55;81.66
78671;BME280;68277;52.724;6.516;2023-05-19T04:34:33;102792.34;;;7.51;81.67
78671;BME280;68277;52.724;6.516;2023-05-19T04:37:00;102808.59;;;7.73;81.48
78671;BME280;68277;52.724;6.516;2023-05-19T04:39:27;102769.06;;;7.73;82.99
78671;BME280;68277;52.724;6.516;2023-05-19T04:41:53;102784.72;;;8.08;81.46
78671;BME280;68277;52.724;6.516;2023-05-19T04:44:19;102781.25;;;8.11;81.32
78671;BME280;68277;52.724;6.516;2023-05-19T04:46:47;102776.03;;;8.15;81.94
78671;BME280;68277;52.724;6.516;2023-05-19T04:49:14;102794.94;;;8.37;82.82
78671;BME280;68277;52.724;6.516;2023-05-19T04:51:40;102742.66;;;8.14;81.98
78671;BME280;68277;52.724;6.516;2023-05-19T04:54:08;102755.28;;;8.32;81.51
78671;BME280;68277;52.724;6.516;2023-05-19T04:56:35;102752.91;;;8.47;80.88
78671;BME280;68277;52.724;6.516;2023-05-19T04:59:00;102744.25;;;8.56;81.81
78671;BME280;68277;52.724;6.516;2023-05-19T05:01:26;102772.72;;;8.73;81.08
78671;BME280;68277;52.724;6.516;2023-05-19T05:03:54;102782.50;;;8.80;81.03
78671;BME280;68277;52.724;6.516;2023-05-19T05:06:23;102762.06;;;8.69;81.50
78671;BME280;68277;52.724;6.516;2023-05-19T05:08:50;102777.22;;;8.82;81.54
78671;BME280;68277;52.724;6.516;2023-05-19T05:11:16;102777.41;;;8.92;81.76
78671;BME280;68277;52.724;6.516;2023-05-19T05:13:42;102780.56;;;9.30;80.82
78671;BME280;68277;52.724;6.516;2023-05-19T05:16:08;102745.94;;;9.78;79.90
78671;BME280;68277;52.724;6.516;2023-05-19T05:18:34;102777.50;;;10.44;77.92
78671;BME280;68277;52.724;6.516;2023-05-19T05:21:01;102781.88;;;10.38;78.51
78671;BME280;68277;52.724;6.516;2023-05-19T05:23:28;102771.13;;;10.21;78.81
78671;BME280;68277;52.724;6.516;2023-05-19T05:25:55;102786.53;;;10.64;77.27
78671;BME280;68277;52.724;6.516;2023-05-19T05:28:21;102802.75;;;11.10;74.83
78671;BME280;68277;52.724;6.516;2023-05-19T05:30:47;102749.44;;;10.61;75.67
78671;BME280;68277;52.724;6.516;2023-05-19T05:33:15;102780.75;;;11.18;74.82
78671;BME280;68277;52.724;6.516;2023-05-19T05:35:41;102772.28;;;12.04;72.33
78671;BME280;68277;52.724;6.516;2023-05-19T05:38:09;102760.81;;;12.79;69.90
78671;BME280;68277;52.724;6.516;2023-05-19T05:40:36;102776.75;;;13.26;67.78
78671;BME280;68277;52.724;6.516;2023-05-19T05:43:02;102791.84;;;12.90;67.65
78671;BME280;68277;52.724;6.516;2023-05-19T05:45:31;102774.13;;;12.38;72.41
78671;BME280;68277;52.724;6.516;2023-05-19T05:47:58;102773.25;;;12.62;72.44
78671;BME280;68277;52.724;6.516;2023-05-19T05:50:30;102793.56;;;13.03;71.27
78671;BME280;68277;52.724;6.516;2023-05-19T05:53:00;102780.22;;;13.44;68.19
78671;BME280;68277;52.724;6.516;2023-05-19T05:55:26;102770.50;;;13.37;67.99
78671;BME280;68277;52.724;6.516;2023-05-19T05:57:51;102767.88;;;13.25;67.94
78671;BME280;68277;52.724;6.516;2023-05-19T06:00:17;102764.38;;;12.79;69.26
78671;BME280;68277;52.724;6.516;2023-05-19T06:02:50;102767.06;;;12.60;71.87
78671;BME280;68277;52.724;6.516;2023-05-19T06:05:17;102769.59;;;13.37;70.10
78671;BME280;68277;52.724;6.516;2023-05-19T06:07:44;102782.97;;;15.66;61.86
78671;BME280;68277;52.724;6.516;2023-05-19T06:10:11;102751.13;;;17.19;56.94
78671;BME280;68277;52.724;6.516;2023-05-19T06:12:37;102783.03;;;18.53;52.59
78671;BME280;68277;52.724;6.516;2023-05-19T06:15:07;102767.66;;;17.40;54.50
78671;BME280;68277;52.724;6.516;2023-05-19T06:17:46;102774.66;;;15.87;59.67
78671;BME280;68277;52.724;6.516;2023-05-19T06:20:12;102772.34;;;15.60;60.39
78671;BME280;68277;52.724;6.516;2023-05-19T06:22:38;102776.09;;;16.69;55.12
78671;BME280;68277;52.724;6.516;2023-05-19T06:25:05;102771.94;;;16.53;54.11
78671;BME280;68277;52.724;6.516;2023-05-19T06:27:32;102764.09;;;15.78;55.97
78671;BME280;68277;52.724;6.516;2023-05-19T06:29:57;102793.72;;;14.72;57.45
78671;BME280;68277;52.724;6.516;2023-05-19T06:32:24;102782.75;;;13.78;61.28
78671;BME280;68277;52.724;6.516;2023-05-19T06:34:50;102810.34;;;13.51;61.85
78671;BME280;68277;52.724;6.516;2023-05-19T06:37:22;102813.09;;;13.13;63.31
78671;BME280;68277;52.724;6.516;2023-05-19T06:39:50;102806.81;;;13.49;62.76
78671;BME280;68277;52.724;6.516;2023-05-19T06:42:20;102808.25;;;14.18;60.57
78671;BME280;68277;52.724;6.516;2023-05-19T06:45:04;102808.38;;;13.97;60.51
78671;BME280;68277;52.724;6.516;2023-05-19T06:47:31;102794.31;;;13.70;60.65
78671;BME280;68277;52.724;6.516;2023-05-19T06:49:56;102789.97;;;13.48;60.85
78671;BME280;68277;52.724;6.516;2023-05-19T06:52:25;102776.69;;;13.33;60.69
78671;BME280;68277;52.724;6.516;2023-05-19T06:54:51;102782.03;;;13.27;61.76
78671;BME280;68277;52.724;6.516;2023-05-19T06:57:16;102794.44;;;13.27;62.90
78671;BME280;68277;52.724;6.516;2023-05-19T06:59:43;102788.22;;;13.34;62.34
78671;BME280;68277;52.724;6.516;2023-05-19T07:02:11;102782.84;;;13.53;61.85
78671;BME280;68277;52.724;6.516;2023-05-19T07:04:36;102787.25;;;13.60;61.07
78671;BME280;68277;52.724;6.516;2023-05-19T07:07:02;102756.34;;;13.28;61.17
78671;BME280;68277;52.724;6.516;2023-05-19T07:09:28;102785.56;;;13.37;61.42
78671;BME280;68277;52.724;6.516;2023-05-19T07:11:55;102786.38;;;13.63;60.71
78671;BME280;68277;52.724;6.516;2023-05-19T07:14:21;102799.31;;;14.28;58.78
78671;BME280;68277;52.724;6.516;2023-05-19T07:16:47;102752.50;;;13.94;57.61
78671;BME280;68277;52.724;6.516;2023-05-19T07:19:12;102776.50;;;13.85;59.09
78671;BME280;68277;52.724;6.516;2023-05-19T07:21:38;102801.22;;;14.05;59.60
78671;BME280;68277;52.724;6.516;2023-05-19T07:24:03;102785.41;;;13.79;58.41
78671;BME280;68277;52.724;6.516;2023-05-19T07:26:29;102792.44;;;13.94;58.40
78671;BME280;68277;52.724;6.516;2023-05-19T07:28:54;102783.50;;;14.02;58.49
78671;BME280;68277;52.724;6.516;2023-05-19T07:31:20;102784.38;;;14.06;58.21
78671;BME280;68277;52.724;6.516;2023-05-19T07:33:46;102790.53;;;14.14;58.55
78671;BME280;68277;52.724;6.516;2023-05-19T07:36:11;102771.91;;;14.11;58.68
78671;BME280;68277;52.724;6.516;2023-05-19T07:38:37;102786.91;;;14.24;58.93
78671;BME280;68277;52.724;6.516;2023-05-19T07:41:02;102774.47;;;14.23;58.88
78671;BME280;68277;52.724;6.516;2023-05-19T07:43:28;102762.94;;;14.24;58.34
78671;BME280;68277;52.724;6.516;2023-05-19T07:45:54;102785.69;;;14.70;56.04
78671;BME280;68277;52.724;6.516;2023-05-19T07:48:21;102796.75;;;15.22;56.21
78671;BME280;68277;52.724;6.516;2023-05-19T07:50:47;102801.16;;;15.28;56.68
78671;BME280;68277;52.724;6.516;2023-05-19T07:53:14;102788.63;;;15.34;56.35
78671;BME280;68277;52.724;6.516;2023-05-19T07:55:39;102776.22;;;15.29;57.11
78671;BME280;68277;52.724;6.516;2023-05-19T07:58:05;102771.72;;;15.34;54.50
78671;BME280;68277;52.724;6.516;2023-05-19T08:00:31;102786.81;;;15.36;54.52
78671;BME280;68277;52.724;6.516;2023-05-19T08:02:56;102793.59;;;15.67;53.72
78671;BME280;68277;52.724;6.516;2023-05-19T08:05:22;102790.66;;;15.89;52.97
78671;BME280;68277;52.724;6.516;2023-05-19T08:07:49;102787.47;;;16.25;53.00
78671;BME280;68277;52.724;6.516;2023-05-19T08:10:15;102791.63;;;16.44;52.71
78671;BME280;68277;52.724;6.516;2023-05-19T08:12:40;102754.03;;;15.98;51.12
78671;BME280;68277;52.724;6.516;2023-05-19T08:15:06;102765.97;;;15.73;50.76
78671;BME280;68277;52.724;6.516;2023-05-19T08:17:32;102750.75;;;15.78;51.57
78671;BME280;68277;52.724;6.516;2023-05-19T08:19:58;102773.28;;;16.21;49.99
78671;BME280;68277;52.724;6.516;2023-05-19T08:22:24;102775.69;;;16.91;47.30
78671;BME280;68277;52.724;6.516;2023-05-19T08:24:50;102753.66;;;16.77;47.58
78671;BME280;68277;52.724;6.516;2023-05-19T08:27:16;102770.16;;;16.52;48.82
78671;BME280;68277;52.724;6.516;2023-05-19T08:29:41;102764.03;;;16.43;49.84
78671;BME280;68277;52.724;6.516;2023-05-19T08:32:07;102765.56;;;16.60;50.53
78671;BME280;68277;52.724;6.516;2023-05-19T08:34:33;102764.19;;;16.86;49.56
78671;BME280;68277;52.724;6.516;2023-05-19T08:36:58;102735.72;;;16.85;49.30
78671;BME280;68277;52.724;6.516;2023-05-19T08:39:24;102757.13;;;16.84;48.72
78671;BME280;68277;52.724;6.516;2023-05-19T08:41:53;102757.44;;;16.67;48.43
78671;BME280;68277;52.724;6.516;2023-05-19T08:44:18;102727.44;;;16.47;49.28
78671;BME280;68277;52.724;6.516;2023-05-19T08:46:45;102740.84;;;16.96;47.72
78671;BME280;68277;52.724;6.516;2023-05-19T08:49:13;102734.31;;;17.10;46.90
78671;BME280;68277;52.724;6.516;2023-05-19T08:51:49;102738.50;;;17.25;47.06
78671;BME280;68277;52.724;6.516;2023-05-19T08:54:21;102707.81;;;17.43;46.64
78671;BME280;68277;52.724;6.516;2023-05-19T08:56:50;102715.00;;;17.82;46.08
78671;BME280;68277;52.724;6.516;2023-05-19T08:59:16;102736.00;;;17.60;45.21
78671;BME280;68277;52.724;6.516;2023-05-19T09:01:46;102739.00;;;17.44;45.00
78671;BME280;68277;52.724;6.516;2023-05-19T09:04:12;102729.72;;;17.63;47.42
78671;BME280;68277;52.724;6.516;2023-05-19T09:06:37;102694.75;;;17.70;48.26
78671;BME280;68277;52.724;6.516;2023-05-19T09:09:05;102710.63;;;17.78;48.29
78671;BME280;68277;52.724;6.516;2023-05-19T09:11:33;102717.28;;;17.60;45.95
78671;BME280;68277;52.724;6.516;2023-05-19T09:13:59;102710.34;;;17.49;43.90
78671;BME280;68277;52.724;6.516;2023-05-19T09:16:25;102720.59;;;18.10;43.18
78671;BME280;68277;52.724;6.516;2023-05-19T09:18:57;102702.34;;;18.94;41.30
78671;BME280;68277;52.724;6.516;2023-05-19T09:21:33;102690.41;;;19.37;39.40
78671;BME280;68277;52.724;6.516;2023-05-19T09:24:06;102690.81;;;19.82;39.45
78671;BME280;68277;52.724;6.516;2023-05-19T09:26:39;102692.31;;;19.32;38.93
78671;BME280;68277;52.724;6.516;2023-05-19T09:29:15;102696.28;;;18.88;40.23
78671;BME280;68277;52.724;6.516;2023-05-19T09:31:52;102693.59;;;18.56;41.24
78671;BME280;68277;52.724;6.516;2023-05-19T09:34:19;102683.63;;;18.24;42.15
78671;BME280;68277;52.724;6.516;2023-05-19T09:36:46;102696.91;;;18.30;42.18
78671;BME280;68277;52.724;6.516;2023-05-19T09:39:17;102692.31;;;18.69;43.00
78671;BME280;68277;52.724;6.516;2023-05-19T09:41:44;102689.97;;;18.89;42.13
78671;BME280;68277;52.724;6.516;2023-05-19T09:44:23;102688.78;;;19.00;38.32
78671;BME280;68277;52.724;6.516;2023-05-19T09:46:53;102665.72;;;18.93;40.85
78671;BME280;68277;52.724;6.516;2023-05-19T09:51:54;102693.22;;;19.32;42.61
78671;BME280;68277;52.724;6.516;2023-05-19T09:54:23;102672.31;;;19.72;42.77
78671;BME280;68277;52.724;6.516;2023-05-19T09:57:02;102673.78;;;19.83;39.16
78671;BME280;68277;52.724;6.516;2023-05-19T09:59:29;102650.09;;;19.67;41.42
78671;BME280;68277;52.724;6.516;2023-05-19T10:01:56;102662.34;;;19.76;40.85
78671;BME280;68277;52.724;6.516;2023-05-19T10:04:26;102662.41;;;19.74;39.60
78671;BME280;68277;52.724;6.516;2023-05-19T10:06:52;102674.19;;;19.69;39.34
78671;BME280;68277;52.724;6.516;2023-05-19T10:09:22;102641.19;;;19.38;40.83
78671;BME280;68277;52.724;6.516;2023-05-19T10:11:52;102691.06;;;19.74;40.19
78671;BME280;68277;52.724;6.516;2023-05-19T10:14:22;102673.72;;;19.56;37.29
78671;BME280;68277;52.724;6.516;2023-05-19T10:16:55;102678.44;;;19.48;38.60
78671;BME280;68277;52.724;6.516;2023-05-19T10:19:23;102664.50;;;19.34;39.27
78671;BME280;68277;52.724;6.516;2023-05-19T10:21:49;102653.50;;;19.43;39.50
78671;BME280;68277;52.724;6.516;2023-05-19T10:24:15;102656.44;;;19.65;39.77
78671;BME280;68277;52.724;6.516;2023-05-19T10:29:15;102660.38;;;19.53;39.75
78671;BME280;68277;52.724;6.516;2023-05-19T10:31:42;102637.53;;;19.40;38.83
78671;BME280;68277;52.724;6.516;2023-05-19T10:36:47;102644.75;;;19.07;39.37
78671;BME280;68277;52.724;6.516;2023-05-19T10:39:17;102639.84;;;18.91;39.16
78671;BME280;68277;52.724;6.516;2023-05-19T10:42:15;102648.94;;;19.16;38.94
78671;BME280;68277;52.724;6.516;2023-05-19T10:45:12;102649.91;;;19.44;39.29
78671;BME280;68277;52.724;6.516;2023-05-19T10:47:40;102614.91;;;19.47;39.73
78671;BME280;68277;52.724;6.516;2023-05-19T10:50:10;102623.34;;;19.34;39.16
78671;BME280;68277;52.724;6.516;2023-05-19T10:52:38;102644.78;;;19.35;40.19
78671;BME280;68277;52.724;6.516;2023-05-19T10:55:08;102642.53;;;19.51;40.09
78671;BME280;68277;52.724;6.516;2023-05-19T10:57:34;102621.34;;;19.42;39.87
78671;BME280;68277;52.724;6.516;2023-05-19T11:00:04;102641.63;;;19.52;38.96
78671;BME280;68277;52.724;6.516;2023-05-19T11:02:48;102617.22;;;19.87;39.42
78671;BME280;68277;52.724;6.516;2023-05-19T11:05:27;102597.66;;;19.82;38.60
78671;BME280;68277;52.724;6.516;2023-05-19T11:07:55;102631.97;;;20.28;39.40
78671;BME280;68277;52.724;6.516;2023-05-19T11:10:24;102619.78;;;20.44;38.16
78671;BME280;68277;52.724;6.516;2023-05-19T11:12:52;102601.75;;;20.46;37.60
78671;BME280;68277;52.724;6.516;2023-05-19T11:15:24;102626.41;;;20.59;36.64
78671;BME280;68277;52.724;6.516;2023-05-19T11:17:51;102624.63;;;20.33;35.79
78671;BME280;68277;52.724;6.516;2023-05-19T11:20:24;102621.28;;;20.26;37.38
78671;BME280;68277;52.724;6.516;2023-05-19T11:23:06;102628.66;;;20.46;36.40
78671;BME280;68277;52.724;6.516;2023-05-19T11:25:42;102625.72;;;20.27;35.82
78671;BME280;68277;52.724;6.516;2023-05-19T11:28:15;102627.16;;;20.11;36.08
78671;BME280;68277;52.724;6.516;2023-05-19T11:30:43;102631.22;;;20.24;36.38
78671;BME280;68277;52.724;6.516;2023-05-19T11:33:09;102616.41;;;20.11;36.39
78671;BME280;68277;52.724;6.516;2023-05-19T11:35:35;102623.44;;;20.15;37.25
78671;BME280;68277;52.724;6.516;2023-05-19T11:38:01;102602.97;;;20.11;37.20
78671;BME280;68277;52.724;6.516;2023-05-19T11:40:29;102601.91;;;20.15;37.08
78671;BME280;68277;52.724;6.516;2023-05-19T11:42:54;102589.63;;;20.08;36.67
78671;BME280;68277;52.724;6.516;2023-05-19T11:45:24;102577.00;;;20.10;36.09
78671;BME280;68277;52.724;6.516;2023-05-19T11:47:50;102590.28;;;20.41;37.15
78671;BME280;68277;52.724;6.516;2023-05-19T11:50:16;102603.50;;;20.72;37.20
78671;BME280;68277;52.724;6.516;2023-05-19T11:52:45;102583.69;;;20.25;35.82
78671;BME280;68277;52.724;6.516;2023-05-19T11:55:21;102593.19;;;20.09;35.36
78671;BME280;68277;52.724;6.516;2023-05-19T11:58:00;102575.00;;;19.63;35.61
78671;BME280;68277;52.724;6.516;2023-05-19T12:00:27;102579.09;;;19.74;35.97
78671;BME280;68277;52.724;6.516;2023-05-19T12:02:53;102576.06;;;19.59;36.10
78671;BME280;68277;52.724;6.516;2023-05-19T12:05:24;102587.34;;;19.41;35.33
78671;BME280;68277;52.724;6.516;2023-05-19T12:07:51;102585.63;;;19.40;36.02
78671;BME280;68277;52.724;6.516;2023-05-19T12:10:25;102605.47;;;19.90;36.55
78671;BME280;68277;52.724;6.516;2023-05-19T12:12:51;102580.41;;;20.15;35.92
78671;BME280;68277;52.724;6.516;2023-05-19T12:15:18;102593.97;;;20.63;35.63
78671;BME280;68277;52.724;6.516;2023-05-19T12:17:48;102571.31;;;20.69;34.79
78671;BME280;68277;52.724;6.516;2023-05-19T12:20:13;102574.69;;;20.51;34.90
78671;BME280;68277;52.724;6.516;2023-05-19T12:22:39;102593.16;;;20.35;35.19
78671;BME280;68277;52.724;6.516;2023-05-19T12:25:05;102599.75;;;20.26;35.24
78671;BME280;68277;52.724;6.516;2023-05-19T12:27:34;102581.56;;;20.08;35.54
78671;BME280;68277;52.724;6.516;2023-05-19T12:30:02;102581.09;;;20.22;34.81
78671;BME280;68277;52.724;6.516;2023-05-19T12:32:29;102559.59;;;20.22;34.75
78671;BME280;68277;52.724;6.516;2023-05-19T12:34:55;102563.56;;;20.36;34.77
78671;BME280;68277;52.724;6.516;2023-05-19T12:37:21;102566.75;;;20.71;35.11
78671;BME280;68277;52.724;6.516;2023-05-19T12:39:49;102562.72;;;21.07;34.28
78671;BME280;68277;52.724;6.516;2023-05-19T12:42:15;102571.72;;;21.51;34.20
78671;BME280;68277;52.724;6.516;2023-05-19T12:44:46;102575.06;;;21.57;34.08
78671;BME280;68277;52.724;6.516;2023-05-19T12:47:14;102582.72;;;21.68;34.00
78671;BME280;68277;52.724;6.516;2023-05-19T12:52:43;102547.97;;;21.39;34.54
78671;BME280;68277;52.724;6.516;2023-05-19T12:55:09;102562.72;;;21.07;33.25
78671;BME280;68277;52.724;6.516;2023-05-19T12:57:37;102587.47;;;20.69;33.41
78671;BME280;68277;52.724;6.516;2023-05-19T13:00:07;102576.63;;;20.22;34.58
78671;BME280;68277;52.724;6.516;2023-05-19T13:03:07;102586.00;;;20.60;34.27
78671;BME280;68277;52.724;6.516;2023-05-19T13:05:40;102571.72;;;21.06;34.44
78671;BME280;68277;52.724;6.516;2023-05-19T13:08:20;102547.09;;;20.93;33.62
78671;BME280;68277;52.724;6.516;2023-05-19T13:10:48;102566.91;;;20.68;34.19
78671;BME280;68277;52.724;6.516;2023-05-19T13:13:14;102542.78;;;20.65;34.73
78671;BME280;68277;52.724;6.516;2023-05-19T13:15:42;102524.59;;;20.94;34.50
78671;BME280;68277;52.724;6.516;2023-05-19T13:18:09;102550.59;;;21.19;33.50
78671;BME280;68277;52.724;6.516;2023-05-19T13:20:36;102542.63;;;21.16;33.38
78671;BME280;68277;52.724;6.516;2023-05-19T13:23:02;102524.66;;;21.16;33.95
78671;BME280;68277;52.724;6.516;2023-05-19T13:25:34;102520.56;;;21.06;33.56
78671;BME280;68277;52.724;6.516;2023-05-19T13:28:01;102555.66;;;21.04;33.32